Time;durP1;ratioP1;P1;durP2;ratioP2;P2;SDS_P1;SDS_P2;PMS_P1;PMS_P2;Temp;Humidity;BMP_temperature;BMP_pressure;BME280_temperature;BME280_humidity;BME280_pressure;Samples;Min_cycle;Max_cycle;Signal;HPM_P1;HPM_P2
2022/09/11 00:01:39;;;;;;;20.73;18.83;;;18.00;99.90;;;;;;5073295;28;20447;-68
2022/09/11 00:04:06;;;;;;;22.30;19.90;;;17.90;99.90;;;;;;5073423;28;20903;-68
2022/09/11 00:06:33;;;;;;;21.00;18.10;;;17.90;99.90;;;;;;5073510;28;20552;-68
2022/09/11 00:09:02;;;;;;;20.33;18.33;;;17.80;99.90;;;;;;5073766;28;20471;-68
2022/09/11 00:11:32;;;;;;;19.80;17.90;;;17.80;99.90;;;;;;5073440;28;20429;-68
2022/09/11 00:13:59;;;;;;;24.43;18.97;;;17.80;99.90;;;;;;5073234;28;20507;-68
2022/09/11 00:16:31;;;;;;;27.43;20.70;;;17.80;99.90;;;;;;5073002;28;20492;-68
2022/09/11 00:19:00;;;;;;;20.93;18.70;;;17.70;99.90;;;;;;5073302;28;20436;-68
2022/09/11 00:21:28;;;;;;;20.40;18.50;;;17.60;99.90;;;;;;5073347;28;20445;-68
2022/09/11 00:23:55;;;;;;;22.77;19.40;;;17.60;99.90;;;;;;5072883;28;20849;-68
2022/09/11 00:26:23;;;;;;;22.33;20.00;;;17.60;99.90;;;;;;5072921;28;20968;-68
2022/09/11 00:28:51;;;;;;;20.20;17.97;;;17.50;99.90;;;;;;5073281;28;20530;-68
2022/09/11 00:31:19;;;;;;;21.53;19.20;;;17.50;99.90;;;;;;5073298;28;20449;-68
2022/09/11 00:33:47;;;;;;;25.50;20.73;;;17.40;99.90;;;;;;5073151;28;20474;-68
2022/09/11 00:36:16;;;;;;;23.37;21.03;;;17.40;99.90;;;;;;5073045;28;20448;-68
2022/09/11 00:38:45;;;;;;;22.77;20.33;;;17.40;99.90;;;;;;5073090;28;20456;-68
2022/09/11 00:41:15;;;;;;;22.80;20.47;;;17.40;99.90;;;;;;5073167;28;20543;-68
2022/09/11 00:44:01;;;;;;;20.87;18.77;;;17.50;99.90;;;;;;5072672;28;20471;-68
2022/09/11 00:46:34;;;;;;;23.57;21.17;;;17.50;99.90;;;;;;5073010;28;20469;-68
2022/09/11 00:49:13;;;;;;;20.47;18.63;;;17.50;99.90;;;;;;5073011;28;20428;-68
2022/09/11 00:51:40;;;;;;;23.80;21.20;;;17.50;99.90;;;;;;5073083;28;20441;-68
2022/09/11 00:54:12;;;;;;;22.47;20.33;;;17.50;99.90;;;;;;5072925;28;20496;-68
2022/09/11 00:56:43;;;;;;;22.40;20.20;;;17.40;99.90;;;;;;5072726;28;20464;-68
2022/09/11 00:59:11;;;;;;;22.13;19.67;;;17.40;99.90;;;;;;5072622;28;20507;-68
2022/09/11 01:01:38;;;;;;;23.37;19.93;;;17.40;99.90;;;;;;5072758;28;20452;-68
2022/09/11 01:04:08;;;;;;;23.80;21.37;;;17.30;99.90;;;;;;5072851;28;20465;-68
2022/09/11 01:06:35;;;;;;;23.73;21.33;;;17.30;99.90;;;;;;5073345;28;20445;-68
2022/09/11 01:09:02;;;;;;;25.43;22.77;;;17.30;99.90;;;;;;5076634;28;20456;-69
2022/09/11 01:11:44;;;;;;;23.80;21.37;;;17.30;99.90;;;;;;5076979;28;20451;-69
2022/09/11 01:14:23;;;;;;;27.23;22.87;;;17.30;99.90;;;;;;5076092;28;20541;-69
2022/09/11 01:16:56;;;;;;;35.30;23.00;;;17.30;99.90;;;;;;5075923;28;20984;-68
2022/09/11 01:19:41;;;;;;;33.60;24.00;;;17.30;99.90;;;;;;5076285;28;20424;-69
2022/09/11 01:22:20;;;;;;;25.20;22.60;;;17.30;99.90;;;;;;5075842;28;20432;-69
2022/09/11 01:25:07;;;;;;;24.37;21.77;;;17.30;99.90;;;;;;5075990;28;20433;-68
2022/09/11 01:27:45;;;;;;;23.87;21.77;;;17.20;99.90;;;;;;5076016;28;20441;-68
2022/09/11 01:30:15;;;;;;;25.20;22.50;;;17.20;99.90;;;;;;5076263;28;20437;-68
2022/09/11 01:32:55;;;;;;;29.00;22.70;;;17.30;99.90;;;;;;5075781;28;20845;-69
2022/09/11 01:35:27;;;;;;;27.17;24.37;;;17.30;99.90;;;;;;5076223;28;20439;-68
2022/09/11 01:38:02;;;;;;;28.03;23.40;;;17.30;99.90;;;;;;5076068;28;20471;-68
2022/09/11 01:40:37;;;;;;;26.13;22.80;;;17.30;99.90;;;;;;5075851;28;21045;-68
2022/09/11 01:43:11;;;;;;;26.80;24.00;;;17.20;99.90;;;;;;5075805;28;20482;-69
2022/09/11 01:45:42;;;;;;;26.70;24.20;;;17.20;99.90;;;;;;5075669;28;20926;-69
2022/09/11 01:48:11;;;;;;;28.03;23.80;;;17.20;99.90;;;;;;5075644;28;20440;-69
2022/09/11 01:50:42;;;;;;;25.33;22.97;;;17.30;99.90;;;;;;5075683;28;20455;-69
2022/09/11 01:53:12;;;;;;;27.37;24.60;;;17.30;99.90;;;;;;5075130;28;20520;-69
2022/09/11 01:55:43;;;;;;;28.83;25.73;;;17.20;99.90;;;;;;5075483;28;20433;-69
2022/09/11 01:58:14;;;;;;;26.80;24.20;;;17.30;99.90;;;;;;5075162;28;20475;-68
2022/09/11 02:00:45;;;;;;;29.60;26.57;;;17.20;99.90;;;;;;5075214;28;20920;-68
2022/09/11 02:03:17;;;;;;;29.40;26.40;;;17.20;99.90;;;;;;5075288;28;20478;-68
2022/09/11 02:05:50;;;;;;;30.33;27.10;;;17.20;99.90;;;;;;5075611;28;20441;-68
2022/09/11 02:08:20;;;;;;;30.27;26.50;;;17.20;99.90;;;;;;5075483;28;20434;-69
2022/09/11 02:10:51;;;;;;;32.10;27.63;;;17.20;99.90;;;;;;5075436;28;20448;-69
2022/09/11 02:13:24;;;;;;;32.23;28.43;;;17.20;99.90;;;;;;5075327;28;20469;-69
2022/09/11 02:15:55;;;;;;;32.03;28.53;;;17.20;99.90;;;;;;5075287;28;20435;-69
2022/09/11 02:18:27;;;;;;;30.10;27.10;;;17.20;99.90;;;;;;5074188;28;20912;-69
2022/09/11 02:20:54;;;;;;;35.27;30.03;;;17.20;99.90;;;;;;5075330;28;20429;-69
2022/09/11 02:23:21;;;;;;;32.87;29.47;;;17.20;99.90;;;;;;5074823;28;20468;-68
2022/09/11 02:25:48;;;;;;;41.90;31.40;;;17.10;99.90;;;;;;5074732;28;20933;-69
2022/09/11 02:28:16;;;;;;;35.73;30.47;;;17.10;99.90;;;;;;5075121;28;20449;-68
2022/09/11 02:30:45;;;;;;;45.57;30.70;;;17.10;99.90;;;;;;5074821;28;20820;-69
2022/09/11 02:33:30;;;;;;;36.00;31.67;;;17.10;99.90;;;;;;5074759;28;20480;-68
2022/09/11 02:36:12;;;;;;;47.03;32.23;;;17.10;99.90;;;;;;5074811;28;20453;-69
2022/09/11 02:38:47;;;;;;;42.77;31.43;;;17.10;99.90;;;;;;5074677;28;20480;-69
2022/09/11 02:41:18;;;;;;;41.63;32.47;;;17.10;99.90;;;;;;5074617;28;20441;-69
2022/09/11 02:43:58;;;;;;;39.30;32.60;;;17.10;99.90;;;;;;5074874;28;20573;-69
2022/09/11 02:46:39;;;;;;;47.13;35.00;;;17.10;99.90;;;;;;5074350;28;20944;-68
2022/09/11 02:49:14;;;;;;;41.97;34.47;;;17.10;99.90;;;;;;5074461;28;20436;-69
2022/09/11 02:51:49;;;;;;;44.47;32.87;;;17.10;99.90;;;;;;5074729;28;20527;-69
2022/09/11 02:54:29;;;;;;;44.80;34.23;;;17.10;99.90;;;;;;5073927;28;20483;-69
2022/09/11 02:57:04;;;;;;;40.63;34.40;;;17.10;99.90;;;;;;5074107;28;20486;-69
2022/09/11 02:59:36;;;;;;;45.93;36.27;;;17.20;99.90;;;;;;5074297;28;20429;-69
2022/09/11 03:02:09;;;;;;;54.87;34.20;;;17.10;99.90;;;;;;5074244;28;20492;-69
2022/09/11 03:04:36;;;;;;;48.27;35.50;;;17.20;99.90;;;;;;5074153;28;20433;-69
2022/09/11 03:07:03;;;;;;;56.73;33.93;;;17.10;99.90;;;;;;5074138;28;20437;-69
2022/09/11 03:09:30;;;;;;;43.33;34.37;;;17.10;99.90;;;;;;5073748;28;20456;-68
2022/09/11 03:11:57;;;;;;;42.23;34.03;;;17.10;99.90;;;;;;5073950;28;20452;-68
2022/09/11 03:14:23;;;;;;;46.40;34.27;;;17.20;99.90;;;;;;5074854;28;20469;-67
2022/09/11 03:16:50;;;;;;;61.73;36.80;;;17.10;99.90;;;;;;5073820;28;20468;-68
2022/09/11 03:19:18;;;;;;;46.87;35.30;;;17.10;99.90;;;;;;5073738;28;20484;-69
2022/09/11 03:21:45;;;;;;;46.70;35.13;;;17.10;99.90;;;;;;5073818;28;20500;-69
2022/09/11 03:24:12;;;;;;;50.87;34.77;;;17.10;99.90;;;;;;5073662;28;20472;-69
2022/09/11 03:26:39;;;;;;;53.37;36.37;;;17.20;99.90;;;;;;5073411;28;20449;-69
2022/09/11 03:29:07;;;;;;;59.03;36.73;;;17.10;99.90;;;;;;5073803;28;20831;-69
2022/09/11 03:31:34;;;;;;;49.83;34.00;;;17.10;99.90;;;;;;5073698;28;20497;-69
2022/09/11 03:34:01;;;;;;;45.50;32.27;;;17.10;99.90;;;;;;5073525;28;20469;-69
2022/09/11 03:36:29;;;;;;;50.27;35.50;;;17.10;99.90;;;;;;5073721;28;20445;-68
2022/09/11 03:38:56;;;;;;;54.93;33.77;;;17.00;99.90;;;;;;5073388;28;20484;-69
2022/09/11 03:41:22;;;;;;;58.33;34.60;;;17.00;99.90;;;;;;5073665;28;20441;-69
2022/09/11 03:43:50;;;;;;;45.10;33.47;;;17.00;99.90;;;;;;5073094;28;20988;-69
2022/09/11 03:46:17;;;;;;;45.43;33.03;;;16.90;99.90;;;;;;5073532;28;20817;-69
2022/09/11 03:48:44;;;;;;;57.87;33.37;;;16.90;99.90;;;;;;5073406;28;20488;-69
2022/09/11 03:51:11;;;;;;;42.00;33.50;;;16.90;99.90;;;;;;5073466;28;20798;-68
2022/09/11 03:53:39;;;;;;;46.53;32.33;;;16.90;99.90;;;;;;5073215;28;20476;-69
2022/09/11 03:56:06;;;;;;;55.57;32.70;;;16.90;99.90;;;;;;5073391;28;20453;-68
2022/09/11 03:58:33;;;;;;;41.97;32.80;;;16.90;99.90;;;;;;5073366;28;20492;-68
2022/09/11 04:01:00;;;;;;;50.13;32.63;;;16.90;99.90;;;;;;5073364;28;20452;-69
2022/09/11 04:03:26;;;;;;;53.80;34.20;;;16.90;99.90;;;;;;5073362;28;20481;-69
2022/09/11 04:05:59;;;;;;;55.60;36.13;;;16.90;99.90;;;;;;5073370;28;20436;-68
2022/09/11 04:08:26;;;;;;;42.70;33.93;;;17.00;99.90;;;;;;5073318;28;20463;-69
2022/09/11 04:10:58;;;;;;;49.97;34.77;;;16.90;99.90;;;;;;5073506;28;20445;-69
2022/09/11 04:13:28;;;;;;;39.53;32.07;;;17.00;99.90;;;;;;5073521;28;20950;-68
2022/09/11 04:15:58;;;;;;;72.23;33.77;;;17.00;99.90;;;;;;5073121;28;20453;-68
2022/09/11 04:18:25;;;;;;;53.03;32.83;;;17.00;99.90;;;;;;5073431;28;20483;-68
2022/09/11 04:20:52;;;;;;;49.27;33.17;;;17.00;99.90;;;;;;5073377;28;20444;-69
2022/09/11 04:23:18;;;;;;;43.53;32.20;;;17.00;99.90;;;;;;5073191;28;21011;-69
2022/09/11 04:25:45;;;;;;;50.20;33.80;;;17.00;99.90;;;;;;5073236;28;20448;-69
2022/09/11 04:28:13;;;;;;;42.63;32.70;;;16.90;99.90;;;;;;5073013;28;20444;-69
2022/09/11 04:30:41;;;;;;;38.37;31.40;;;16.90;99.90;;;;;;5073271;28;20476;-69
2022/09/11 04:33:08;;;;;;;42.13;31.73;;;16.90;99.90;;;;;;5072526;28;20882;-69
2022/09/11 04:35:37;;;;;;;39.20;32.43;;;16.90;99.90;;;;;;5073185;28;20456;-69
2022/09/11 04:38:04;;;;;;;37.67;31.37;;;17.00;99.90;;;;;;5072580;28;20484;-69
2022/09/11 04:40:32;;;;;;;37.57;30.57;;;16.90;99.90;;;;;;5072997;28;20473;-69
2022/09/11 04:42:59;;;;;;;37.43;30.93;;;16.90;99.90;;;;;;5075889;28;20992;-69
2022/09/11 04:45:32;;;;;;;40.47;30.67;;;17.00;99.90;;;;;;5077024;28;20543;-68
2022/09/11 04:47:59;;;;;;;39.10;29.50;;;17.00;99.90;;;;;;5076779;28;20420;-68
2022/09/11 04:50:27;;;;;;;41.33;28.93;;;17.00;99.90;;;;;;5076676;28;20453;-69
2022/09/11 04:52:54;;;;;;;30.30;26.10;;;17.00;99.90;;;;;;5076478;28;20587;-69
2022/09/11 04:55:20;;;;;;;54.43;32.10;;;17.10;99.90;;;;;;5076394;28;20782;-69
2022/09/11 04:57:47;;;;;;;49.60;29.77;;;17.10;99.90;;;;;;5076443;28;20453;-69
2022/09/11 05:00:15;;;;;;;55.90;31.90;;;17.10;99.90;;;;;;5076583;28;20852;-69
2022/09/11 05:02:43;;;;;;;42.13;31.73;;;17.00;99.90;;;;;;5076483;28;20678;-69
2022/09/11 05:05:10;;;;;;;65.27;32.37;;;17.00;99.90;;;;;;5076260;28;20459;-69
2022/09/11 05:07:37;;;;;;;34.33;29.23;;;17.00;99.90;;;;;;5076175;28;20451;-69
2022/09/11 05:10:04;;;;;;;85.80;31.73;;;17.00;99.90;;;;;;5076250;28;20440;-69
2022/09/11 05:12:31;;;;;;;43.50;28.60;;;17.00;99.90;;;;;;5076387;28;20555;-69
2022/09/11 05:14:59;;;;;;;56.83;31.30;;;17.00;99.90;;;;;;5076512;28;20460;-68
2022/09/11 05:17:25;;;;;;;41.40;30.03;;;17.00;99.90;;;;;;5076180;28;20543;-68
2022/09/11 05:19:54;;;;;;;36.20;30.57;;;17.00;99.90;;;;;;5076125;28;20480;-68
2022/09/11 05:22:22;;;;;;;53.80;30.80;;;17.00;99.90;;;;;;5076222;28;20473;-68
2022/09/11 05:24:48;;;;;;;53.83;30.57;;;17.00;99.90;;;;;;5075906;28;20448;-68
2022/09/11 05:27:15;;;;;;;32.33;28.30;;;17.00;99.90;;;;;;5076104;28;20449;-68
2022/09/11 05:29:42;;;;;;;36.87;29.57;;;17.00;99.90;;;;;;5075965;28;20448;-69
2022/09/11 05:32:09;;;;;;;61.80;30.73;;;17.00;99.90;;;;;;5075549;28;20453;-68
2022/09/11 05:34:36;;;;;;;37.13;30.97;;;17.00;99.90;;;;;;5075959;28;20446;-68
2022/09/11 05:37:04;;;;;;;41.03;31.80;;;17.00;99.90;;;;;;5075514;28;20441;-68
2022/09/11 05:39:31;;;;;;;55.80;31.90;;;17.00;99.90;;;;;;5075691;28;20487;-68
2022/09/11 05:41:57;;;;;;;43.53;30.43;;;17.00;99.90;;;;;;5075445;28;20836;-68
2022/09/11 05:44:24;;;;;;;60.33;31.30;;;17.00;99.90;;;;;;5075790;28;20449;-68
2022/09/11 05:46:51;;;;;;;50.80;31.60;;;17.00;99.90;;;;;;5075759;28;20449;-68
2022/09/11 05:49:18;;;;;;;39.30;32.23;;;17.10;99.90;;;;;;5075377;28;20968;-68
2022/09/11 05:51:45;;;;;;;63.43;34.97;;;17.00;99.90;;;;;;5075458;28;20464;-68
2022/09/11 05:54:14;;;;;;;47.27;32.40;;;17.00;99.90;;;;;;5074071;28;20885;-69
2022/09/11 05:56:41;;;;;;;63.33;32.10;;;17.00;99.90;;;;;;5075361;28;20509;-69
2022/09/11 05:59:13;;;;;;;45.80;31.03;;;17.10;99.90;;;;;;5075175;28;20527;-68
2022/09/11 06:01:42;;;;;;;49.10;31.73;;;17.10;99.90;;;;;;5075421;28;20461;-67
2022/09/11 06:04:10;;;;;;;44.53;31.40;;;17.10;99.90;;;;;;5075349;28;20477;-67
2022/09/11 06:06:36;;;;;;;37.83;28.83;;;17.10;99.90;;;;;;5075595;28;20825;-68
2022/09/11 06:09:03;;;;;;;36.67;29.00;;;17.20;99.90;;;;;;5075441;28;20429;-68
2022/09/11 06:11:32;;;;;;;43.90;30.80;;;17.20;99.90;;;;;;5075619;28;20461;-68
2022/09/11 06:13:59;;;;;;;42.10;29.80;;;17.30;99.90;;;;;;5074702;28;20913;-68
2022/09/11 06:16:28;;;;;;;45.40;28.50;;;17.30;99.90;;;;;;5075313;28;20460;-68
2022/09/11 06:18:54;;;;;;;39.47;28.07;;;17.30;99.90;;;;;;5074477;28;21000;-68
2022/09/11 06:21:23;;;;;;;41.90;29.77;;;17.40;99.90;;;;;;5075212;28;20448;-68
2022/09/11 06:23:53;;;;;;;40.97;29.87;;;17.40;99.90;;;;;;5074822;28;20468;-69
2022/09/11 06:26:21;;;;;;;38.50;31.27;;;17.40;99.90;;;;;;5075071;28;20452;-68
2022/09/11 06:28:50;;;;;;;44.20;29.97;;;17.40;99.90;;;;;;5075175;28;20449;-68
2022/09/11 06:31:19;;;;;;;36.97;28.60;;;17.50;99.90;;;;;;5074757;28;20491;-68
2022/09/11 06:33:47;;;;;;;39.20;29.37;;;17.50;99.90;;;;;;5074695;28;20508;-68
2022/09/11 06:36:16;;;;;;;37.60;30.63;;;17.50;99.90;;;;;;5074839;28;20449;-68
2022/09/11 06:38:44;;;;;;;35.13;27.87;;;17.40;99.90;;;;;;5074797;28;20491;-68
2022/09/11 06:41:14;;;;;;;37.00;28.80;;;17.40;99.90;;;;;;5074922;28;20491;-68
2022/09/11 06:43:41;;;;;;;34.77;26.90;;;17.40;99.90;;;;;;5074540;28;20852;-68
2022/09/11 06:46:11;;;;;;;32.63;27.80;;;17.40;99.90;;;;;;5074906;28;20445;-68
2022/09/11 06:48:38;;;;;;;32.40;26.63;;;17.40;99.90;;;;;;5074619;28;20438;-69
2022/09/11 06:51:06;;;;;;;31.50;26.20;;;17.40;99.90;;;;;;5074577;28;20457;-69
2022/09/11 06:53:34;;;;;;;37.80;28.73;;;17.50;99.90;;;;;;5074067;28;20480;-69
2022/09/11 06:56:01;;;;;;;34.37;27.87;;;17.50;99.90;;;;;;5074186;28;20452;-69
2022/09/11 06:58:29;;;;;;;42.43;28.97;;;17.60;99.90;;;;;;5074074;28;20970;-69
2022/09/11 07:00:55;;;;;;;34.80;28.33;;;17.60;99.90;;;;;;5074409;28;20476;-69
2022/09/11 07:03:24;;;;;;;39.70;29.47;;;17.60;99.90;;;;;;5074300;28;20473;-69
2022/09/11 07:05:50;;;;;;;32.87;28.13;;;17.60;99.90;;;;;;5073830;28;20449;-69
2022/09/11 07:08:17;;;;;;;40.77;29.23;;;17.70;99.90;;;;;;5074152;28;20452;-69
2022/09/11 07:10:44;;;;;;;34.13;29.63;;;17.70;99.90;;;;;;5074094;28;20456;-68
2022/09/11 07:13:11;;;;;;;31.40;26.07;;;17.70;99.90;;;;;;5074252;28;20472;-68
2022/09/11 07:15:38;;;;;;;33.87;28.27;;;17.70;99.90;;;;;;5073633;28;21011;-69
2022/09/11 07:18:05;;;;;;;29.03;25.80;;;17.80;99.90;;;;;;5074349;28;20448;-68
2022/09/11 07:20:33;;;;;;;30.30;25.90;;;17.70;99.90;;;;;;5073912;28;20503;-68
2022/09/11 07:23:00;;;;;;;36.50;26.47;;;17.70;99.90;;;;;;5073910;28;20476;-68
2022/09/11 07:25:27;;;;;;;30.80;27.07;;;17.70;99.90;;;;;;5073859;28;20445;-68
2022/09/11 07:27:54;;;;;;;34.90;27.70;;;17.70;99.90;;;;;;5073634;28;20449;-68
2022/09/11 07:30:20;;;;;;;32.70;27.67;;;17.70;99.90;;;;;;5073348;28;20449;-69
2022/09/11 07:32:48;;;;;;;35.40;28.47;;;17.70;99.90;;;;;;5073760;28;20484;-69
2022/09/11 07:35:20;;;;;;;36.73;29.90;;;17.80;99.90;;;;;;5073737;28;20488;-69
2022/09/11 07:37:48;;;;;;;32.03;27.70;;;17.70;99.90;;;;;;5073797;28;20503;-69
2022/09/11 07:40:15;;;;;;;33.30;28.00;;;17.80;99.90;;;;;;5073677;28;20483;-69
2022/09/11 07:42:42;;;;;;;33.07;28.23;;;17.80;99.90;;;;;;5073509;28;20480;-69
2022/09/11 07:45:10;;;;;;;37.00;27.20;;;17.80;99.90;;;;;;5073778;28;20489;-65
2022/09/11 07:47:38;;;;;;;28.83;25.67;;;17.90;99.90;;;;;;5073570;28;20457;-66
2022/09/11 07:50:06;;;;;;;30.83;25.10;;;18.00;99.90;;;;;;5073272;28;20477;-65
2022/09/11 07:52:32;;;;;;;33.10;25.90;;;18.10;99.90;;;;;;5073290;28;20475;-65
2022/09/11 07:55:02;;;;;;;32.27;26.67;;;18.10;99.90;;;;;;5073443;28;20464;-65
2022/09/11 07:57:30;;;;;;;32.10;25.07;;;18.20;99.90;;;;;;5073536;28;20433;-65
2022/09/11 07:59:56;;;;;;;31.10;26.33;;;18.20;99.90;;;;;;5072813;28;20511;-65
2022/09/11 08:02:23;;;;;;;30.77;26.03;;;18.20;99.90;;;;;;5073381;28;20468;-65
2022/09/11 08:04:50;;;;;;;31.30;26.03;;;18.20;99.90;;;;;;5073368;28;20452;-65
2022/09/11 08:07:17;;;;;;;32.80;27.80;;;18.20;99.90;;;;;;5073732;28;20452;-65
2022/09/11 08:09:44;;;;;;;28.77;24.07;;;18.20;99.90;;;;;;5073442;28;20444;-65
2022/09/11 08:12:12;;;;;;;31.13;25.43;;;18.20;99.90;;;;;;5073033;28;20797;-65
2022/09/11 08:14:39;;;;;;;29.90;26.10;;;18.20;99.90;;;;;;5073401;28;20456;-65
2022/09/11 08:17:06;;;;;;;30.00;26.67;;;18.30;99.90;;;;;;5074735;28;20518;-66
2022/09/11 08:19:32;;;;;;;27.93;24.60;;;18.30;99.90;;;;;;5077506;28;20472;-65
2022/09/11 08:21:59;;;;;;;36.23;27.50;;;18.30;99.90;;;;;;5079159;28;20448;-64
2022/09/11 08:24:26;;;;;;;33.93;27.20;;;18.30;99.90;;;;;;5084271;28;20449;-63
2022/09/11 08:26:53;;;;;;;34.20;29.20;;;18.40;99.90;;;;;;5083148;28;20867;-63
2022/09/11 08:29:21;;;;;;;33.07;29.40;;;18.50;99.90;;;;;;5081690;28;20451;-62
2022/09/11 08:31:47;;;;;;;32.70;28.17;;;18.50;99.90;;;;;;5081428;28;20445;-62
2022/09/11 08:34:14;;;;;;;30.50;26.80;;;18.50;99.50;;;;;;5081384;28;21007;-63
2022/09/11 08:36:41;;;;;;;29.90;26.80;;;18.50;99.60;;;;;;5082489;28;20451;-63
2022/09/11 08:39:08;;;;;;;32.70;28.80;;;18.50;99.80;;;;;;5082101;28;20472;-62
2022/09/11 08:41:47;;;;;;;32.73;28.83;;;18.40;99.90;;;;;;5082843;28;20472;-62
2022/09/11 08:44:20;;;;;;;31.50;28.23;;;18.40;99.90;;;;;;5084557;28;20532;-63
2022/09/11 08:46:51;;;;;;;31.00;27.23;;;18.40;99.90;;;;;;5082520;28;20527;-63
2022/09/11 08:49:23;;;;;;;33.90;28.43;;;18.40;99.90;;;;;;5081508;28;20429;-64
2022/09/11 08:51:51;;;;;;;30.30;25.80;;;18.40;99.90;;;;;;5081195;28;20436;-63
2022/09/11 08:54:26;;;;;;;31.97;27.70;;;18.50;99.90;;;;;;5081008;28;20472;-62
2022/09/11 08:56:55;;;;;;;34.50;28.67;;;18.50;99.90;;;;;;5082980;28;20783;-64
2022/09/11 08:59:33;;;;;;;33.93;30.23;;;18.50;99.90;;;;;;5082633;28;20514;-62
2022/09/11 09:02:17;;;;;;;31.23;27.90;;;18.50;99.90;;;;;;5082777;28;20824;-63
2022/09/11 09:04:59;;;;;;;29.93;26.67;;;18.50;99.90;;;;;;5066773;28;20448;-64
2022/09/11 09:07:33;;;;;;;29.90;26.43;;;18.50;99.80;;;;;;5082887;28;20428;-64
2022/09/11 09:10:06;;;;;;;26.57;23.60;;;18.50;99.80;;;;;;5081644;28;20432;-64
2022/09/11 09:12:44;;;;;;;26.23;23.50;;;18.50;99.90;;;;;;5081595;28;20534;-63
2022/09/11 09:15:37;;;;;;;26.97;23.40;;;18.60;99.80;;;;;;5081212;28;20436;-63
2022/09/11 09:18:11;;;;;;;27.33;24.33;;;18.70;99.50;;;;;;5080075;28;20442;-61
2022/09/11 09:20:43;;;;;;;28.30;25.30;;;18.80;99.90;;;;;;5080627;28;21003;-63
2022/09/11 09:23:19;;;;;;;26.57;23.67;;;18.90;99.10;;;;;;5080618;28;20464;-63
2022/09/11 09:25:47;;;;;;;25.63;23.03;;;18.90;99.40;;;;;;5081534;28;20429;-63
2022/09/11 09:28:19;;;;;;;28.60;25.50;;;18.80;99.50;;;;;;5081557;28;20846;-62
2022/09/11 09:30:50;;;;;;;32.50;28.17;;;18.80;99.30;;;;;;5082041;28;20436;-62
2022/09/11 09:33:29;;;;;;;26.67;23.80;;;18.90;99.10;;;;;;5081620;28;20465;-63
2022/09/11 09:35:56;;;;;;;27.20;24.40;;;19.00;98.80;;;;;;5083770;28;20459;-63
2022/09/11 09:38:28;;;;;;;29.80;26.70;;;19.20;98.50;;;;;;5082973;28;20487;-63
2022/09/11 09:41:21;;;;;;;28.80;25.20;;;19.40;98.60;;;;;;5081904;28;20975;-61
2022/09/11 09:43:56;;;;;;;26.73;24.13;;;19.50;98.40;;;;;;5079734;28;20480;-63
2022/09/11 09:46:30;;;;;;;25.50;22.97;;;19.70;98.00;;;;;;5085380;28;20440;-62
2022/09/11 09:48:59;;;;;;;24.57;22.03;;;19.70;97.20;;;;;;5091898;28;20430;-62
2022/09/11 09:51:26;;;;;;;23.60;21.30;;;19.70;97.20;;;;;;5085253;28;20483;-62
2022/09/11 09:53:57;;;;;;;25.37;22.67;;;19.80;97.10;;;;;;5087829;28;20499;-62
2022/09/11 09:56:25;;;;;;;28.03;25.00;;;19.90;96.60;;;;;;5087725;28;20429;-65
2022/09/11 09:58:59;;;;;;;24.97;22.60;;;20.00;96.80;;;;;;5087841;28;20453;-65
2022/09/11 10:01:48;;;;;;;27.60;24.80;;;20.10;97.10;;;;;;5088587;28;20472;-65
2022/09/11 10:04:19;;;;;;;27.93;25.00;;;20.40;97.20;;;;;;5089142;28;20484;-65
2022/09/11 10:06:49;;;;;;;26.00;23.27;;;20.60;96.50;;;;;;5089154;28;20428;-65
2022/09/11 10:09:27;;;;;;;25.90;23.10;;;20.70;95.90;;;;;;5088189;28;20874;-65
2022/09/11 10:12:01;;;;;;;25.90;23.30;;;20.80;95.50;;;;;;5087006;28;20448;-65
2022/09/11 10:14:31;;;;;;;25.53;22.67;;;20.80;95.50;;;;;;5087134;28;20451;-66
2022/09/11 10:16:58;;;;;;;24.57;22.20;;;20.90;95.20;;;;;;5086981;28;20457;-66
2022/09/11 10:19:41;;;;;;;25.43;22.90;;;21.10;95.00;;;;;;5087176;28;20453;-66
2022/09/11 10:22:29;;;;;;;24.13;21.83;;;21.50;94.30;;;;;;5086918;28;20429;-66
2022/09/11 10:25:01;;;;;;;22.40;20.23;;;22.00;92.80;;;;;;5086486;28;20445;-66
2022/09/11 10:27:33;;;;;;;21.77;19.67;;;22.50;91.70;;;;;;5087424;28;20445;-65
2022/09/11 10:30:00;;;;;;;21.13;19.00;;;22.80;90.50;;;;;;5105761;28;20451;-65
2022/09/11 10:32:28;;;;;;;21.90;19.77;;;23.10;89.60;;;;;;5106623;28;20479;-65
2022/09/11 10:34:58;;;;;;;19.30;17.50;;;23.30;86.70;;;;;;5088153;28;20464;-64
2022/09/11 10:37:28;;;;;;;18.00;16.37;;;23.50;86.10;;;;;;5088688;28;20468;-65
2022/09/11 10:40:02;;;;;;;19.00;17.20;;;23.80;85.30;;;;;;5087747;28;20503;-65
2022/09/11 10:42:32;;;;;;;20.20;18.20;;;24.20;83.50;;;;;;5086692;28;20492;-65
2022/09/11 10:45:15;;;;;;;18.70;17.00;;;24.50;80.60;;;;;;5099017;28;20468;-65
2022/09/11 10:47:44;;;;;;;19.27;17.37;;;24.50;78.50;;;;;;5106310;28;20432;-65
2022/09/11 10:50:21;;;;;;;20.80;18.70;;;24.40;78.00;;;;;;5098383;28;20496;-64
2022/09/11 10:52:58;;;;;;;25.77;19.40;;;24.50;79.30;;;;;;5086436;28;20479;-65
2022/09/11 10:55:29;;;;;;;21.07;19.17;;;24.60;79.10;;;;;;5103864;28;20467;-65
2022/09/11 10:58:04;;;;;;;19.43;17.50;;;24.80;77.00;;;;;;5105217;28;20905;-66
2022/09/11 11:00:33;;;;;;;16.70;15.30;;;25.10;75.80;;;;;;5086758;28;20483;-65
2022/09/11 11:03:05;;;;;;;17.40;15.80;;;25.80;75.40;;;;;;5082075;28;20461;-65
2022/09/11 11:05:40;;;;;;;16.20;14.80;;;26.80;70.00;;;;;;5082528;28;20489;-70
2022/09/11 11:08:19;;;;;;;17.27;15.57;;;28.10;62.70;;;;;;5096447;28;20517;-67
2022/09/11 11:11:02;;;;;;;16.13;14.73;;;29.00;56.80;;;;;;5090720;28;20487;-66
2022/09/11 11:13:45;;;;;;;13.93;12.83;;;29.30;54.30;;;;;;5096853;28;20582;-66
2022/09/11 11:16:20;;;;;;;11.47;10.47;;;29.60;52.20;;;;;;5106131;28;20467;-67
2022/09/11 11:19:07;;;;;;;11.50;10.50;;;30.20;51.40;;;;;;5106585;28;20870;-67
2022/09/11 11:21:48;;;;;;;12.90;11.70;;;30.50;49.40;;;;;;5099272;28;20480;-67
2022/09/11 11:24:28;;;;;;;12.30;11.10;;;31.00;47.90;;;;;;5088727;28;20460;-67
2022/09/11 11:27:11;;;;;;;9.87;8.97;;;31.50;46.00;;;;;;5086778;28;20457;-67
2022/09/11 11:30:03;;;;;;;12.43;11.23;;;31.90;45.80;;;;;;5091592;28;20452;-66
2022/09/11 11:32:45;;;;;;;12.07;10.97;;;32.30;43.00;;;;;;5107376;28;20479;-67
2022/09/11 11:35:22;;;;;;;12.20;11.20;;;32.80;41.60;;;;;;5108196;28;20458;-67
2022/09/11 11:37:55;;;;;;;8.07;7.40;;;33.00;42.10;;;;;;5093439;28;20455;-66
2022/09/11 11:40:28;;;;;;;7.53;6.70;;;33.20;40.70;;;;;;5088012;28;20468;-67
2022/09/11 11:43:01;;;;;;;8.47;7.67;;;33.60;40.90;;;;;;5088001;28;20987;-67
2022/09/11 11:45:31;;;;;;;12.07;11.07;;;34.20;40.70;;;;;;5087660;28;20449;-68
2022/09/11 11:47:59;;;;;;;9.57;8.77;;;34.60;38.80;;;;;;5088212;28;20464;-68
2022/09/11 11:50:30;;;;;;;8.00;7.30;;;34.80;38.60;;;;;;5088007;28;20492;-66
2022/09/11 11:53:06;;;;;;;8.10;7.40;;;35.40;37.50;;;;;;5105648;28;20228;-67
2022/09/11 11:55:43;;;;;;;5.63;5.13;;;36.10;37.00;;;;;;5107049;28;20473;-67
2022/09/11 11:58:18;;;;;;;9.00;8.20;;;37.10;34.90;;;;;;5107237;28;20208;-67
2022/09/11 12:00:49;;;;;;;8.45;7.60;;;38.00;32.90;;;;;;5105831;28;20213;-67
2022/09/11 12:03:22;;;;;;;8.52;7.82;;;38.80;30.40;;;;;;5106354;28;20232;-66
2022/09/11 12:05:50;;;;;;;7.18;6.50;;;39.50;29.80;;;;;;5089375;28;20248;-67
2022/09/11 12:08:18;;;;;;;5.10;4.60;;;40.10;28.70;;;;;;5086992;28;20642;-67
2022/09/11 12:10:55;;;;;;;9.05;8.35;;;40.80;28.30;;;;;;5086944;28;20631;-67
2022/09/11 12:13:29;;;;;;;9.00;8.15;;;41.20;25.90;;;;;;5087059;28;20224;-67
2022/09/11 12:16:09;;;;;;;7.90;7.22;;;40.60;25.90;;;;;;5091836;28;20208;-67
2022/09/11 12:18:37;;;;;;;6.78;6.07;;;40.10;26.90;;;;;;5102751;28;20208;-67
2022/09/11 12:21:38;;;;;;;7.00;6.40;;;39.70;26.70;;;;;;5088911;28;20284;-67
2022/09/11 12:24:16;;;;;;;6.82;6.32;;;39.70;26.10;;;;;;5092992;28;20220;-67
2022/09/11 12:26:43;;;;;;;7.43;6.82;;;39.90;26.20;;;;;;5107869;28;20189;-68
2022/09/11 12:29:54;;;;;;;5.88;5.18;;;40.20;25.60;;;;;;5088391;28;20202;-67
2022/09/11 12:32:42;;;;;;;6.38;5.85;;;40.50;24.90;;;;;;5023625;28;20247;-67
2022/09/11 12:35:20;;;;;;;6.28;5.75;;;40.70;25.70;;;;;;5106933;28;20190;-67
2022/09/11 12:37:53;;;;;;;5.22;4.82;;;40.30;25.10;;;;;;5106779;28;20186;-68
2022/09/11 12:40:27;;;;;;;5.88;5.47;;;40.20;25.20;;;;;;5095562;28;20210;-68
2022/09/11 12:42:59;;;;;;;4.97;4.57;;;40.20;25.20;;;;;;5086559;28;20226;-68
2022/09/11 12:45:33;;;;;;;4.28;3.80;;;40.30;24.50;;;;;;5086607;28;20216;-68
2022/09/11 12:48:08;;;;;;;6.18;5.60;;;40.50;24.70;;;;;;5087172;28;20236;-67